Laurel, Nebraska
Current Conditions -  °F | °C
As of 3:55 AM on Thursday 29 Jan 2015 (Local Time) from KLCG Reporting Station
Overcast Overcast  
Wind Chill: 22°   Ceiling: 1900
Heat Index: 35°   Visibility: 10mi
Dew Point: 29°   Wind: 29mph
Humidity: 78%   Direction: 340°NNW
Pressure: 30.17"   Gusts: 37mph
Location:  42.43°N, 97.09°W
Report Text: KLCG 290955Z AUTO 34025G32KT 10SM BKN019 OVC024 02/M02 A3017 RMK AO2 T00171017
Loading
Personal Weather Stations






























Interactive Weather Map New forecast layout! Learn more

10-Day Weather Forecast

Advertisements
Track Severe Weather on mobile